createdAt,value
2023-05-20T00:01:29.128Z,3.17
2023-05-20T00:03:57.563Z,5.57
2023-05-20T00:06:26.200Z,5.25
2023-05-20T00:08:55.594Z,5.60
2023-05-20T00:11:26.205Z,4.95
2023-05-20T00:13:54.446Z,3.40
2023-05-20T00:16:22.845Z,4.60
2023-05-20T00:18:51.264Z,3.83
2023-05-20T00:21:19.606Z,3.60
2023-05-20T00:23:47.835Z,4.45
2023-05-20T00:26:16.178Z,5.90
2023-05-20T00:28:47.771Z,4.47
2023-05-20T00:31:16.140Z,4.70
2023-05-20T00:33:44.423Z,4.55
2023-05-20T00:36:12.801Z,4.35
2023-05-20T00:38:40.981Z,4.25
2023-05-20T00:41:09.353Z,5.20
2023-05-20T00:43:37.616Z,5.20
2023-05-20T00:46:07.510Z,3.90
2023-05-20T00:48:42.405Z,4.05
2023-05-20T00:51:12.433Z,4.90
2023-05-20T00:53:41.029Z,4.82
2023-05-20T00:56:11.116Z,5.07
2023-05-20T00:58:39.906Z,4.03
2023-05-20T01:01:09.969Z,4.28
2023-05-20T01:03:39.134Z,6.43
2023-05-20T01:06:07.694Z,4.45
2023-05-20T01:08:36.151Z,4.28
2023-05-20T01:11:08.192Z,4.60
2023-05-20T01:13:44.345Z,4.65
2023-05-20T01:16:18.921Z,5.70
2023-05-20T01:18:49.554Z,4.20
2023-05-20T01:21:19.661Z,4.50
2023-05-20T01:23:49.306Z,3.53
2023-05-20T01:26:18.833Z,4.88
2023-05-20T01:28:47.736Z,4.20
2023-05-20T01:31:20.006Z,4.45
2023-05-20T01:33:52.304Z,6.07
2023-05-20T01:36:22.412Z,4.07
2023-05-20T01:38:53.905Z,6.80
2023-05-20T01:41:24.441Z,5.43
2023-05-20T01:43:52.890Z,5.53
2023-05-20T01:46:21.350Z,3.65
2023-05-20T01:48:50.909Z,3.85
2023-05-20T01:51:19.366Z,4.28
2023-05-20T01:53:47.594Z,4.65
2023-05-20T01:56:17.282Z,4.25
2023-05-20T01:58:45.787Z,3.78
2023-05-20T02:01:14.843Z,4.85
2023-05-20T02:03:44.963Z,6.15
2023-05-20T02:06:13.374Z,4.43
2023-05-20T02:08:41.622Z,5.22
2023-05-20T02:11:09.984Z,6.30
2023-05-20T02:13:41.504Z,3.60
2023-05-20T02:16:10.044Z,4.50
2023-05-20T02:18:38.478Z,6.88
2023-05-20T02:21:07.264Z,6.40
2023-05-20T02:23:35.957Z,4.78
2023-05-20T02:26:04.447Z,5.15
2023-05-20T02:28:32.687Z,3.90
2023-05-20T02:31:02.394Z,5.57
2023-05-20T02:33:33.534Z,5.20
2023-05-20T02:36:02.386Z,5.07
2023-05-20T02:38:31.756Z,4.68
2023-05-20T02:41:01.300Z,5.93
2023-05-20T02:43:30.778Z,5.38
2023-05-20T02:46:03.597Z,5.10
2023-05-20T02:48:32.032Z,5.30
2023-05-20T02:51:00.848Z,4.25
2023-05-20T02:53:29.202Z,4.63
2023-05-20T02:55:59.616Z,3.80
2023-05-20T02:58:29.292Z,6.53
2023-05-20T03:00:57.738Z,5.15
2023-05-20T03:03:28.107Z,4.55
2023-05-20T03:05:56.886Z,5.50
2023-05-20T03:08:25.682Z,6.10
2023-05-20T03:10:54.123Z,6.38
2023-05-20T03:13:22.766Z,4.55
2023-05-20T03:15:51.327Z,4.38
2023-05-20T03:18:19.563Z,5.93
2023-05-20T03:20:49.413Z,6.13
2023-05-20T03:23:17.787Z,5.05
2023-05-20T03:25:46.234Z,8.00
2023-05-20T03:28:14.493Z,7.32
2023-05-20T03:30:42.818Z,6.68
2023-05-20T03:33:12.281Z,5.43
2023-05-20T03:35:40.852Z,6.55
2023-05-20T03:38:10.379Z,5.80
2023-05-20T03:40:40.167Z,4.85
2023-05-20T03:43:08.449Z,6.10
2023-05-20T03:45:37.048Z,5.75
2023-05-20T03:48:08.059Z,5.53
2023-05-20T03:50:37.729Z,6.95
2023-05-20T03:53:06.433Z,5.50
2023-05-20T03:55:41.509Z,4.65
2023-05-20T03:58:10.771Z,7.32
2023-05-20T04:00:39.690Z,5.32
2023-05-20T04:03:08.654Z,4.95
2023-05-20T04:05:37.595Z,6.25
2023-05-20T04:08:13.462Z,6.80
2023-05-20T04:10:43.868Z,6.43
2023-05-20T04:13:13.272Z,5.22
2023-05-20T04:15:42.798Z,5.53
2023-05-20T04:18:13.083Z,5.18
2023-05-20T04:20:42.549Z,5.90
2023-05-20T04:23:11.707Z,7.30
2023-05-20T04:25:41.212Z,5.43
2023-05-20T04:28:14.010Z,6.38
2023-05-20T04:30:42.612Z,7.38
2023-05-20T04:33:11.599Z,5.43
2023-05-20T04:35:41.560Z,18.65
2023-05-20T04:38:10.869Z,7.55
2023-05-20T04:40:40.777Z,6.60
2023-05-20T04:43:11.064Z,6.57
2023-05-20T04:45:40.297Z,9.38
2023-05-20T04:48:09.473Z,7.63
2023-05-20T04:50:39.128Z,8.23
2023-05-20T04:53:08.965Z,5.75
2023-05-20T04:55:38.998Z,5.43
2023-05-20T04:58:08.394Z,5.82
2023-05-20T05:00:38.758Z,8.63
2023-05-20T05:03:08.442Z,10.77
2023-05-20T05:05:38.786Z,5.88
2023-05-20T05:08:07.958Z,6.55
2023-05-20T05:10:40.966Z,7.45
2023-05-20T05:13:11.113Z,6.80
2023-05-20T05:15:40.757Z,9.27
2023-05-20T05:18:09.744Z,7.75
2023-05-20T05:20:38.777Z,7.60
2023-05-20T05:23:07.447Z,6.85
2023-05-20T05:25:36.225Z,8.23
2023-05-20T05:28:04.911Z,6.82
2023-05-20T05:30:33.249Z,7.90
2023-05-20T05:33:05.282Z,6.20
2023-05-20T05:35:34.425Z,7.70
2023-05-20T05:38:03.104Z,9.90
2023-05-20T05:40:31.596Z,7.35
2023-05-20T05:43:00.357Z,8.77
2023-05-20T05:45:28.719Z,7.10
2023-05-20T05:47:57.639Z,7.68
2023-05-20T05:50:28.258Z,8.95
2023-05-20T05:52:56.626Z,7.47
2023-05-20T05:55:25.201Z,7.20
2023-05-20T05:57:56.167Z,8.00
2023-05-20T06:00:25.081Z,8.38
2023-05-20T06:02:53.501Z,9.95
2023-05-20T06:05:34.426Z,10.15
2023-05-20T06:08:03.177Z,9.35
2023-05-20T06:10:34.457Z,10.50
2023-05-20T06:13:03.119Z,10.50
2023-05-20T06:15:32.881Z,6.47
2023-05-20T06:18:01.822Z,9.85
2023-05-20T06:20:30.263Z,8.02
2023-05-20T06:23:00.271Z,8.68
2023-05-20T06:25:37.346Z,7.38
2023-05-20T06:28:06.395Z,7.65
2023-05-20T06:30:34.804Z,7.88
2023-05-20T06:33:03.566Z,8.25
2023-05-20T06:35:34.816Z,9.25
2023-05-20T06:38:05.908Z,9.23
2023-05-20T06:40:35.518Z,9.10
2023-05-20T06:43:03.878Z,10.95
2023-05-20T06:45:52.029Z,9.00
2023-05-20T06:48:25.399Z,8.25
2023-05-20T06:50:53.995Z,8.93
2023-05-20T06:53:23.772Z,11.07
2023-05-20T06:55:52.668Z,8.38
2023-05-20T06:58:22.362Z,9.00
2023-05-20T07:00:50.685Z,9.30
2023-05-20T07:03:19.084Z,9.20
2023-05-20T07:05:47.664Z,9.85
2023-05-20T07:08:16.058Z,13.27
2023-05-20T07:10:46.503Z,9.63
2023-05-20T07:13:18.329Z,11.95
2023-05-20T07:15:48.508Z,13.32
2023-05-20T07:18:17.976Z,11.15
2023-05-20T07:20:52.833Z,11.40
2023-05-20T07:23:40.955Z,11.60
2023-05-20T07:26:10.767Z,10.85
2023-05-20T07:28:39.642Z,9.68
2023-05-20T07:31:08.060Z,10.02
2023-05-20T07:33:42.982Z,9.95
2023-05-20T07:36:11.634Z,9.77
2023-05-20T07:38:49.726Z,12.43
2023-05-20T07:41:27.280Z,13.38
2023-05-20T07:43:56.025Z,10.32
2023-05-20T07:46:24.488Z,15.15
2023-05-20T07:48:53.153Z,10.18
2023-05-20T07:51:21.815Z,10.45
2023-05-20T07:53:50.674Z,10.27
2023-05-20T07:56:19.694Z,11.10
2023-05-20T07:58:55.501Z,10.88
2023-05-20T08:01:26.040Z,11.50
2023-05-20T08:03:55.593Z,10.05
2023-05-20T08:06:28.760Z,10.55
2023-05-20T08:08:58.857Z,8.98
2023-05-20T08:11:32.209Z,13.20
2023-05-20T08:14:03.066Z,8.70
2023-05-20T08:16:38.211Z,11.73
2023-05-20T08:19:06.661Z,8.43
2023-05-20T08:21:35.243Z,11.05
2023-05-20T08:24:05.360Z,8.80
2023-05-20T08:26:34.658Z,11.15
2023-05-20T08:29:04.343Z,9.27
2023-05-20T08:31:32.686Z,12.45
2023-05-20T08:34:01.562Z,10.20
2023-05-20T08:36:29.831Z,10.70
2023-05-20T08:38:58.229Z,11.23
2023-05-20T08:41:27.088Z,10.73
2023-05-20T08:43:56.996Z,11.00
2023-05-20T08:46:33.293Z,11.02
2023-05-20T08:49:03.192Z,10.02
2023-05-20T08:51:34.339Z,14.50
2023-05-20T08:54:05.664Z,12.35
2023-05-20T08:56:39.138Z,10.20
2023-05-20T08:59:12.274Z,11.05
2023-05-20T09:01:45.931Z,10.20
2023-05-20T09:04:19.711Z,10.43
2023-05-20T09:06:52.452Z,10.50
2023-05-20T09:09:22.686Z,10.18
2023-05-20T09:11:53.695Z,9.57
2023-05-20T09:14:23.625Z,10.23
2023-05-20T09:16:53.299Z,11.82
2023-05-20T09:19:24.467Z,9.48
2023-05-20T09:21:58.665Z,13.68
2023-05-20T09:24:29.763Z,9.98
2023-05-20T09:27:01.215Z,9.35
2023-05-20T09:29:30.821Z,11.45
2023-05-20T09:32:06.786Z,10.23
2023-05-20T09:34:36.711Z,10.20
2023-05-20T09:37:07.982Z,8.85
2023-05-20T09:39:51.276Z,9.18
2023-05-20T09:42:26.813Z,10.38
2023-05-20T09:44:56.322Z,10.43
2023-05-20T09:47:27.381Z,9.10
2023-05-20T09:49:56.579Z,10.65
2023-05-20T09:52:25.586Z,10.90
2023-05-20T09:54:57.354Z,9.52
2023-05-20T09:57:26.414Z,9.38
2023-05-20T09:59:55.151Z,9.07
2023-05-20T10:02:23.974Z,12.73
2023-05-20T10:04:56.827Z,8.48
2023-05-20T10:07:52.858Z,8.35
2023-05-20T10:10:35.044Z,10.68
2023-05-20T10:13:14.425Z,6.97
2023-05-20T10:15:51.172Z,9.02
2023-05-20T10:18:41.153Z,9.88
2023-05-20T10:21:18.527Z,9.75
2023-05-20T10:23:47.265Z,8.13
2023-05-20T10:26:15.586Z,15.35
2023-05-20T10:28:44.862Z,10.30
2023-05-20T10:31:18.120Z,8.15
2023-05-20T10:33:47.637Z,9.23
2023-05-20T10:36:27.941Z,9.85
2023-05-20T10:38:58.275Z,10.60
2023-05-20T10:41:28.743Z,8.45
2023-05-20T10:44:05.339Z,10.50
2023-05-20T10:46:46.283Z,7.65
2023-05-20T10:49:26.898Z,8.75
2023-05-20T10:51:57.381Z,8.52
2023-05-20T10:54:25.948Z,7.53
2023-05-20T10:56:54.882Z,8.25
2023-05-20T10:59:23.529Z,10.75
2023-05-20T11:01:53.641Z,7.18
2023-05-20T11:04:22.427Z,8.63
2023-05-20T11:06:55.807Z,11.43
2023-05-20T11:09:25.849Z,10.13
2023-05-20T11:11:55.830Z,7.78
2023-05-20T11:14:24.240Z,9.18
2023-05-20T11:16:54.143Z,8.45
2023-05-20T11:19:22.831Z,14.55
2023-05-20T11:21:51.434Z,9.77
2023-05-20T11:24:27.532Z,8.95
2023-05-20T11:26:57.401Z,11.63
2023-05-20T11:29:28.988Z,11.02
2023-05-20T11:31:57.411Z,10.00
2023-05-20T11:34:27.737Z,10.15
2023-05-20T11:37:00.748Z,9.45
2023-05-20T11:39:32.497Z,11.98
2023-05-20T11:42:01.039Z,14.65
2023-05-20T11:44:29.307Z,9.80
2023-05-20T11:47:01.692Z,9.43
2023-05-20T11:49:30.877Z,10.30
2023-05-20T11:51:59.489Z,14.98
2023-05-20T11:54:27.775Z,12.48
2023-05-20T11:56:57.477Z,13.77
2023-05-20T11:59:26.203Z,9.60
2023-05-20T12:01:54.451Z,11.85
2023-05-20T12:04:23.162Z,12.48
2023-05-20T12:06:53.063Z,9.45
2023-05-20T12:09:22.428Z,13.32
2023-05-20T12:11:50.996Z,12.13
2023-05-20T12:14:20.614Z,11.45
2023-05-20T12:16:48.965Z,11.23
2023-05-20T12:19:17.398Z,11.32
2023-05-20T12:21:47.213Z,12.35
2023-05-20T12:24:15.589Z,10.63
2023-05-20T12:26:44.102Z,10.82
2023-05-20T12:29:12.785Z,12.13
2023-05-20T12:31:42.781Z,11.10
2023-05-20T12:34:11.189Z,11.10
2023-05-20T12:36:39.434Z,9.43
2023-05-20T12:39:09.331Z,11.02
2023-05-20T12:41:37.559Z,12.13
2023-05-20T12:44:06.478Z,10.02
2023-05-20T12:46:34.854Z,9.18
2023-05-20T12:49:04.746Z,12.63
2023-05-20T12:51:32.949Z,9.73
2023-05-20T12:54:01.306Z,9.23
2023-05-20T12:56:30.444Z,9.35
2023-05-20T12:58:59.026Z,10.70
2023-05-20T13:01:27.440Z,13.15
2023-05-20T13:03:55.831Z,9.55
2023-05-20T13:06:26.171Z,9.13
2023-05-20T13:08:54.468Z,8.40
2023-05-20T13:11:22.799Z,8.38
2023-05-20T13:13:51.148Z,10.77
2023-05-20T13:16:19.709Z,9.70
2023-05-20T13:18:48.232Z,10.43
2023-05-20T13:21:16.576Z,8.57
2023-05-20T13:23:46.244Z,8.98
2023-05-20T13:26:14.685Z,8.65
2023-05-20T13:28:42.998Z,9.13
2023-05-20T13:31:11.342Z,11.52
2023-05-20T13:33:39.696Z,9.98
2023-05-20T13:36:08.401Z,7.90
2023-05-20T13:38:37.611Z,8.30
2023-05-20T13:41:07.348Z,9.90
2023-05-20T13:43:36.081Z,12.02
2023-05-20T13:46:04.426Z,8.43
2023-05-20T13:48:33.060Z,8.85
2023-05-20T13:51:01.778Z,8.88
2023-05-20T13:53:30.414Z,9.70
2023-05-20T13:55:59.241Z,8.40
2023-05-20T13:58:28.977Z,10.18
2023-05-20T14:00:57.360Z,10.32
2023-05-20T14:03:25.852Z,8.07
2023-05-20T14:05:54.482Z,8.13
2023-05-20T14:08:23.036Z,8.38
2023-05-20T14:10:54.600Z,10.82
2023-05-20T14:13:24.417Z,9.90
2023-05-20T14:15:54.764Z,8.82
2023-05-20T14:18:23.232Z,8.65
2023-05-20T14:20:51.483Z,9.45
2023-05-20T14:23:19.812Z,9.93
2023-05-20T14:25:48.029Z,11.35
2023-05-20T14:28:16.392Z,9.27
2023-05-20T14:30:44.566Z,10.25
2023-05-20T14:33:14.615Z,9.85
2023-05-20T14:35:42.902Z,10.07
2023-05-20T14:38:11.377Z,10.90
2023-05-20T14:40:39.806Z,8.35
2023-05-20T14:43:08.160Z,9.52
2023-05-20T14:45:36.466Z,8.88
2023-05-20T14:48:05.286Z,9.25
2023-05-20T14:50:34.923Z,9.10
2023-05-20T14:53:03.442Z,10.57
2023-05-20T14:55:31.632Z,10.48
2023-05-20T14:58:00.051Z,9.52
2023-05-20T15:00:28.313Z,10.75
2023-05-20T15:02:56.837Z,12.25
2023-05-20T15:05:25.076Z,9.32
2023-05-20T15:07:55.024Z,10.43
2023-05-20T15:10:23.358Z,9.13
2023-05-20T15:12:53.311Z,11.57
2023-05-20T15:15:22.080Z,10.38
2023-05-20T15:17:50.529Z,9.68
2023-05-20T15:20:18.855Z,9.32
2023-05-20T15:22:48.096Z,12.50
2023-05-20T15:25:17.968Z,10.38
2023-05-20T15:27:46.309Z,10.13
2023-05-20T15:30:15.526Z,14.52
2023-05-20T15:32:44.183Z,8.57
2023-05-20T15:35:12.457Z,9.13
2023-05-20T15:37:41.024Z,11.13
2023-05-20T15:40:10.346Z,9.23
2023-05-20T15:42:40.031Z,10.13
2023-05-20T15:45:09.698Z,11.32
2023-05-20T15:47:40.582Z,9.30
2023-05-20T15:50:11.139Z,12.98
2023-05-20T15:52:39.616Z,11.75
2023-05-20T15:55:09.113Z,13.25
2023-05-20T15:57:38.759Z,9.57
2023-05-20T16:00:10.324Z,10.07
2023-05-20T16:02:40.165Z,10.32
2023-05-20T16:05:09.148Z,10.80
2023-05-20T16:07:37.595Z,10.57
2023-05-20T16:10:06.640Z,8.52
2023-05-20T16:12:35.002Z,11.70
2023-05-20T16:15:04.776Z,11.20
2023-05-20T16:17:33.217Z,10.07
2023-05-20T16:20:01.546Z,11.15
2023-05-20T16:22:30.108Z,14.65
2023-05-20T16:24:58.253Z,12.30
2023-05-20T16:27:26.776Z,12.07
2023-05-20T16:29:54.963Z,11.13
2023-05-20T16:32:24.820Z,10.25
2023-05-20T16:34:54.516Z,12.85
2023-05-20T16:37:22.864Z,12.23
2023-05-20T16:39:51.242Z,11.57
2023-05-20T16:42:19.639Z,15.13
2023-05-20T16:44:49.727Z,11.70
2023-05-20T16:47:18.381Z,13.50
2023-05-20T16:49:47.869Z,12.10
2023-05-20T16:52:16.460Z,14.13
2023-05-20T16:54:44.832Z,15.80
2023-05-20T16:57:15.843Z,13.60
2023-05-20T16:59:44.041Z,13.75
2023-05-20T17:02:12.325Z,12.20
2023-05-20T17:04:40.654Z,11.88
2023-05-20T17:07:11.274Z,12.25
2023-05-20T17:09:39.546Z,12.95
2023-05-20T17:12:08.580Z,15.07
2023-05-20T17:14:36.914Z,14.38
2023-05-20T17:17:06.782Z,13.70
2023-05-20T17:19:35.246Z,14.80
2023-05-20T17:22:03.682Z,17.40
2023-05-20T17:24:34.948Z,12.75
2023-05-20T17:27:03.963Z,14.25
2023-05-20T17:29:32.154Z,14.77
2023-05-20T17:32:00.552Z,13.30
2023-05-20T17:34:29.628Z,13.30
2023-05-20T17:36:58.120Z,15.88
2023-05-20T17:39:26.364Z,14.25
2023-05-20T17:41:56.529Z,14.88
2023-05-20T17:44:24.841Z,16.38
2023-05-20T17:46:54.519Z,12.77
2023-05-20T17:49:23.134Z,16.70
2023-05-20T17:51:51.415Z,12.90
2023-05-20T17:54:19.622Z,12.73
2023-05-20T17:56:50.823Z,12.80
2023-05-20T17:59:21.716Z,15.65
2023-05-20T18:01:50.184Z,15.45
2023-05-20T18:04:18.709Z,14.43
2023-05-20T18:06:47.091Z,13.07
2023-05-20T18:09:15.457Z,13.23
2023-05-20T18:11:43.772Z,15.32
2023-05-20T18:14:12.187Z,12.90
2023-05-20T18:16:41.934Z,14.40
2023-05-20T18:19:10.185Z,14.45
2023-05-20T18:21:38.510Z,12.80
2023-05-20T18:24:07.158Z,16.52
2023-05-20T18:26:35.604Z,17.15
2023-05-20T18:29:04.249Z,16.05
2023-05-20T18:31:32.731Z,17.73
2023-05-20T18:34:02.964Z,16.48
2023-05-20T18:36:31.460Z,15.75
2023-05-20T18:38:59.637Z,18.65
2023-05-20T18:41:39.549Z,15.40
2023-05-20T18:44:14.804Z,14.48
2023-05-20T18:46:43.163Z,16.92
2023-05-20T18:49:12.851Z,16.95
2023-05-20T18:51:41.904Z,15.93
2023-05-20T18:54:10.280Z,17.58
2023-05-20T18:56:38.542Z,20.02
2023-05-20T18:59:06.930Z,16.35
2023-05-20T19:01:36.490Z,16.67
2023-05-20T19:04:05.105Z,16.92
2023-05-20T19:06:35.220Z,17.30
2023-05-20T19:09:03.694Z,16.80
2023-05-20T19:11:32.187Z,18.92
2023-05-20T19:14:00.670Z,16.80
2023-05-20T19:16:29.070Z,17.63
2023-05-20T19:18:57.418Z,17.83
2023-05-20T19:21:25.923Z,17.17
2023-05-20T19:23:56.158Z,16.08
2023-05-20T19:26:24.680Z,16.80
2023-05-20T19:28:53.006Z,23.48
2023-05-20T19:31:22.032Z,19.73
2023-05-20T19:33:50.609Z,17.80
2023-05-20T19:36:19.178Z,19.25
2023-05-20T19:38:47.833Z,23.05
2023-05-20T19:41:17.369Z,20.52
2023-05-20T19:43:45.669Z,25.33
2023-05-20T19:46:14.018Z,22.92
2023-05-20T19:48:42.375Z,18.88
2023-05-20T19:51:11.408Z,18.52
2023-05-20T19:53:39.801Z,17.65
2023-05-20T19:56:08.770Z,18.60
2023-05-20T19:58:38.447Z,18.45
2023-05-20T20:01:06.909Z,17.13
2023-05-20T20:03:35.234Z,21.02
2023-05-20T20:06:03.911Z,16.13
2023-05-20T20:08:33.156Z,18.13
2023-05-20T20:11:01.885Z,17.90
2023-05-20T20:13:30.496Z,19.70
2023-05-20T20:16:00.498Z,19.08
2023-05-20T20:18:28.962Z,19.13
2023-05-20T20:20:59.588Z,18.50
2023-05-20T20:23:28.657Z,19.70
2023-05-20T20:25:57.498Z,18.60
2023-05-20T20:28:26.180Z,20.60
2023-05-20T20:30:55.724Z,20.17
2023-05-20T20:33:25.864Z,19.98
2023-05-20T20:35:55.705Z,20.30
2023-05-20T20:38:24.160Z,21.67
2023-05-20T20:40:54.816Z,19.73
2023-05-20T20:43:23.271Z,17.58
2023-05-20T20:45:53.284Z,21.00
2023-05-20T20:48:27.236Z,19.38
2023-05-20T20:50:58.980Z,20.27
2023-05-20T20:53:27.754Z,25.13
2023-05-20T20:55:56.824Z,19.65
2023-05-20T20:58:27.236Z,20.95
2023-05-20T21:00:55.748Z,19.70
2023-05-20T21:03:26.339Z,17.05
2023-05-20T21:05:54.715Z,19.42
2023-05-20T21:08:27.614Z,18.38
2023-05-20T21:10:59.018Z,18.55
2023-05-20T21:13:28.428Z,17.40
2023-05-20T21:15:56.782Z,21.92
2023-05-20T21:18:25.514Z,20.08
2023-05-20T21:20:55.674Z,17.92
2023-05-20T21:23:25.813Z,19.45
2023-05-20T21:25:54.233Z,18.95
2023-05-20T21:28:23.329Z,18.35
2023-05-20T21:30:51.676Z,20.42
2023-05-20T21:33:20.447Z,21.38
2023-05-20T21:35:48.761Z,19.48
2023-05-20T21:38:17.022Z,17.25
2023-05-20T21:40:47.316Z,19.45
2023-05-20T21:43:15.694Z,18.65
2023-05-20T21:45:45.650Z,18.35
2023-05-20T21:48:14.113Z,20.10
2023-05-20T21:50:42.626Z,17.55
2023-05-20T21:53:11.437Z,19.75
2023-05-20T21:55:41.012Z,21.25
2023-05-20T21:58:11.564Z,17.50
2023-05-20T22:00:40.950Z,23.20
2023-05-20T22:03:09.302Z,17.90
2023-05-20T22:05:38.914Z,19.38
2023-05-20T22:08:07.889Z,20.33
2023-05-20T22:10:36.457Z,19.25
2023-05-20T22:13:05.489Z,19.00
2023-05-20T22:15:35.376Z,20.55
2023-05-20T22:18:07.661Z,20.95
2023-05-20T22:20:38.510Z,19.60
2023-05-20T22:23:06.711Z,18.05
2023-05-20T22:25:36.057Z,18.27
2023-05-20T22:28:05.297Z,18.10
2023-05-20T22:30:35.060Z,17.60
2023-05-20T22:33:03.836Z,17.58
2023-05-20T22:35:32.403Z,18.95
2023-05-20T22:38:01.182Z,19.75
2023-05-20T22:40:33.324Z,25.92
2023-05-20T22:43:01.579Z,21.17
2023-05-20T22:45:29.934Z,26.15
2023-05-20T22:47:59.608Z,31.17
2023-05-20T22:50:27.948Z,25.38
2023-05-20T22:52:56.258Z,30.17
2023-05-20T22:55:24.882Z,30.42
2023-05-20T22:57:53.203Z,21.85
2023-05-20T23:00:21.508Z,21.80
2023-05-20T23:02:52.191Z,18.58
2023-05-20T23:05:22.004Z,22.17
2023-05-20T23:07:52.524Z,23.00
2023-05-20T23:10:20.897Z,20.63
2023-05-20T23:12:49.114Z,27.17
2023-05-20T23:15:17.629Z,22.40
2023-05-20T23:17:45.985Z,20.23
2023-05-20T23:20:18.827Z,24.08
2023-05-20T23:22:48.433Z,21.33
2023-05-20T23:25:16.949Z,17.58
2023-05-20T23:27:45.475Z,21.58
2023-05-20T23:30:13.935Z,17.92
2023-05-20T23:32:42.484Z,16.60
2023-05-20T23:35:12.016Z,21.10
2023-05-20T23:37:40.999Z,21.42
2023-05-20T23:40:11.612Z,18.35
2023-05-20T23:42:40.188Z,17.92
2023-05-20T23:45:09.331Z,16.85
2023-05-20T23:47:37.812Z,19.30
2023-05-20T23:50:06.808Z,19.65
2023-05-20T23:52:35.120Z,22.42
2023-05-20T23:55:03.359Z,23.38
2023-05-20T23:57:32.961Z,18.73
